sensor_id;sensor_type;location;lat;lon;timestamp;pressure;altitude;pressure_sealevel;temperature;humidity
48404;BME280;34202;52.536;6.042;2023-02-03T00:02:24;102358.11;;;7.84;100.00
48404;BME280;34202;52.536;6.042;2023-02-03T00:07:24;102345.91;;;7.82;100.00
48404;BME280;34202;52.536;6.042;2023-02-03T00:12:25;102357.29;;;7.81;100.00
48404;BME280;34202;52.536;6.042;2023-02-03T00:17:25;102376.15;;;7.81;100.00
48404;BME280;34202;52.536;6.042;2023-02-03T00:22:25;102389.38;;;7.81;100.00
48404;BME280;34202;52.536;6.042;2023-02-03T00:27:26;102394.75;;;7.81;100.00
48404;BME280;34202;52.536;6.042;2023-02-03T00:32:26;102388.35;;;7.82;100.00
48404;BME280;34202;52.536;6.042;2023-02-03T00:37:26;102373.49;;;7.83;100.00
48404;BME280;34202;52.536;6.042;2023-02-03T00:42:27;102383.93;;;7.84;100.00
48404;BME280;34202;52.536;6.042;2023-02-03T00:47:27;102377.05;;;7.85;100.00
48404;BME280;34202;52.536;6.042;2023-02-03T00:52:27;102382.80;;;7.86;100.00
48404;BME280;34202;52.536;6.042;2023-02-03T00:57:28;102376.77;;;7.87;100.00
48404;BME280;34202;52.536;6.042;2023-02-03T01:02:28;102365.54;;;7.88;100.00
48404;BME280;34202;52.536;6.042;2023-02-03T01:07:31;102349.80;;;7.88;100.00
48404;BME280;34202;52.536;6.042;2023-02-03T01:12:32;102357.96;;;7.89;100.00
48404;BME280;34202;52.536;6.042;2023-02-03T01:17:32;102352.79;;;7.89;100.00
48404;BME280;34202;52.536;6.042;2023-02-03T01:22:32;102344.65;;;7.90;100.00
48404;BME280;34202;52.536;6.042;2023-02-03T01:27:33;102331.31;;;7.90;100.00
48404;BME280;34202;52.536;6.042;2023-02-03T01:32:34;102325.22;;;7.89;100.00
48404;BME280;34202;52.536;6.042;2023-02-03T01:37:34;102315.35;;;7.90;100.00
48404;BME280;34202;52.536;6.042;2023-02-03T01:42:34;102308.13;;;7.91;100.00
48404;BME280;34202;52.536;6.042;2023-02-03T01:47:45;102300.19;;;7.92;100.00
48404;BME280;34202;52.536;6.042;2023-02-03T01:52:51;102303.83;;;7.92;100.00
48404;BME280;34202;52.536;6.042;2023-02-03T01:58:03;102327.58;;;7.92;100.00
48404;BME280;34202;52.536;6.042;2023-02-03T02:03:06;102325.34;;;7.92;100.00
48404;BME280;34202;52.536;6.042;2023-02-03T02:08:08;102324.14;;;7.93;100.00
48404;BME280;34202;52.536;6.042;2023-02-03T02:13:09;102312.93;;;7.94;100.00
48404;BME280;34202;52.536;6.042;2023-02-03T02:18:23;102287.67;;;7.96;100.00
48404;BME280;34202;52.536;6.042;2023-02-03T02:23:55;102274.48;;;7.96;100.00
48404;BME280;34202;52.536;6.042;2023-02-03T02:44:54;102270.22;;;7.97;100.00
48404;BME280;34202;52.536;6.042;2023-02-03T02:49:58;102267.52;;;7.99;100.00
48404;BME280;34202;52.536;6.042;2023-02-03T02:55:06;102285.35;;;7.98;100.00
48404;BME280;34202;52.536;6.042;2023-02-03T03:00:08;102289.54;;;7.99;100.00
48404;BME280;34202;52.536;6.042;2023-02-03T03:05:10;102288.20;;;8.00;100.00
48404;BME280;34202;52.536;6.042;2023-02-03T03:10:13;102286.38;;;8.02;100.00
48404;BME280;34202;52.536;6.042;2023-02-03T03:15:26;102290.26;;;8.04;100.00
48404;BME280;34202;52.536;6.042;2023-02-03T03:20:29;102274.14;;;8.04;100.00
48404;BME280;34202;52.536;6.042;2023-02-03T03:26:14;102268.84;;;8.05;100.00
48404;BME280;34202;52.536;6.042;2023-02-03T03:31:18;102275.30;;;8.07;100.00
48404;BME280;34202;52.536;6.042;2023-02-03T03:36:41;102259.96;;;8.09;100.00
48404;BME280;34202;52.536;6.042;2023-02-03T03:47:34;102236.71;;;8.09;100.00
48404;BME280;34202;52.536;6.042;2023-02-03T03:52:36;102256.46;;;8.08;100.00
48404;BME280;34202;52.536;6.042;2023-02-03T03:57:44;102264.80;;;8.09;100.00
48404;BME280;34202;52.536;6.042;2023-02-03T04:02:50;102278.53;;;8.10;100.00
48404;BME280;34202;52.536;6.042;2023-02-03T04:07:51;102277.86;;;8.10;100.00
48404;BME280;34202;52.536;6.042;2023-02-03T04:12:52;102274.27;;;8.12;100.00
48404;BME280;34202;52.536;6.042;2023-02-03T04:17:52;102263.56;;;8.12;100.00
48404;BME280;34202;52.536;6.042;2023-02-03T04:22:53;102262.23;;;8.14;100.00
48404;BME280;34202;52.536;6.042;2023-02-03T04:27:54;102259.08;;;8.18;100.00
48404;BME280;34202;52.536;6.042;2023-02-03T04:32:55;102249.05;;;8.19;100.00
48404;BME280;34202;52.536;6.042;2023-02-03T04:37:55;102246.16;;;8.20;100.00
48404;BME280;34202;52.536;6.042;2023-02-03T04:42:55;102245.02;;;8.21;100.00
48404;BME280;34202;52.536;6.042;2023-02-03T04:47:55;102254.91;;;8.22;100.00
48404;BME280;34202;52.536;6.042;2023-02-03T04:52:56;102257.51;;;8.22;100.00
48404;BME280;34202;52.536;6.042;2023-02-03T04:57:59;102254.75;;;8.23;100.00
48404;BME280;34202;52.536;6.042;2023-02-03T05:03:00;102249.41;;;8.23;100.00
48404;BME280;34202;52.536;6.042;2023-02-03T05:08:00;102241.66;;;8.24;100.00
48404;BME280;34202;52.536;6.042;2023-02-03T05:13:00;102250.98;;;8.24;100.00
48404;BME280;34202;52.536;6.042;2023-02-03T05:18:01;102253.42;;;8.24;100.00
48404;BME280;34202;52.536;6.042;2023-02-03T05:23:01;102261.95;;;8.25;100.00
48404;BME280;34202;52.536;6.042;2023-02-03T05:28:02;102259.69;;;8.24;100.00
48404;BME280;34202;52.536;6.042;2023-02-03T05:33:02;102262.31;;;8.25;100.00
48404;BME280;34202;52.536;6.042;2023-02-03T05:38:02;102264.95;;;8.26;100.00
48404;BME280;34202;52.536;6.042;2023-02-03T05:43:03;102269.18;;;8.27;100.00
48404;BME280;34202;52.536;6.042;2023-02-03T05:48:04;102278.41;;;8.28;100.00
48404;BME280;34202;52.536;6.042;2023-02-03T05:53:06;102266.44;;;8.29;100.00
48404;BME280;34202;52.536;6.042;2023-02-03T05:58:07;102267.50;;;8.29;100.00
48404;BME280;34202;52.536;6.042;2023-02-03T06:03:07;102262.51;;;8.29;100.00
48404;BME280;34202;52.536;6.042;2023-02-03T06:08:08;102258.16;;;8.29;100.00
48404;BME280;34202;52.536;6.042;2023-02-03T06:13:13;102264.95;;;8.30;100.00
48404;BME280;34202;52.536;6.042;2023-02-03T06:18:14;102274.02;;;8.31;100.00
48404;BME280;34202;52.536;6.042;2023-02-03T06:23:14;102269.41;;;8.33;100.00
48404;BME280;34202;52.536;6.042;2023-02-03T06:28:16;102273.07;;;8.34;100.00
48404;BME280;34202;52.536;6.042;2023-02-03T06:33:17;102281.80;;;8.36;100.00
48404;BME280;34202;52.536;6.042;2023-02-03T06:38:18;102271.76;;;8.36;100.00
48404;BME280;34202;52.536;6.042;2023-02-03T06:43:18;102273.36;;;8.38;100.00
48404;BME280;34202;52.536;6.042;2023-02-03T06:48:19;102271.83;;;8.38;100.00
48404;BME280;34202;52.536;6.042;2023-02-03T06:53:19;102280.80;;;8.37;100.00
48404;BME280;34202;52.536;6.042;2023-02-03T06:58:19;102277.44;;;8.35;100.00
48404;BME280;34202;52.536;6.042;2023-02-03T07:03:20;102275.09;;;8.32;100.00
48404;BME280;34202;52.536;6.042;2023-02-03T07:08:20;102284.38;;;8.30;100.00
48404;BME280;34202;52.536;6.042;2023-02-03T07:13:20;102282.92;;;8.29;100.00
48404;BME280;34202;52.536;6.042;2023-02-03T07:18:20;102288.29;;;8.28;100.00
48404;BME280;34202;52.536;6.042;2023-02-03T07:23:24;102293.54;;;8.29;100.00
48404;BME280;34202;52.536;6.042;2023-02-03T07:28:24;102300.64;;;8.30;100.00
48404;BME280;34202;52.536;6.042;2023-02-03T07:33:25;102299.30;;;8.30;100.00
48404;BME280;34202;52.536;6.042;2023-02-03T07:38:27;102313.73;;;8.31;100.00
48404;BME280;34202;52.536;6.042;2023-02-03T07:43:27;102314.89;;;8.30;100.00
48404;BME280;34202;52.536;6.042;2023-02-03T07:48:28;102323.23;;;8.30;100.00
48404;BME280;34202;52.536;6.042;2023-02-03T07:53:28;102327.45;;;8.32;100.00
48404;BME280;34202;52.536;6.042;2023-02-03T07:58:30;102336.33;;;8.32;100.00
48404;BME280;34202;52.536;6.042;2023-02-03T08:03:30;102339.20;;;8.35;100.00
48404;BME280;34202;52.536;6.042;2023-02-03T08:08:31;102352.17;;;8.39;100.00
48404;BME280;34202;52.536;6.042;2023-02-03T08:13:31;102339.45;;;8.41;100.00
48404;BME280;34202;52.536;6.042;2023-02-03T08:18:31;102352.64;;;8.45;100.00
48404;BME280;34202;52.536;6.042;2023-02-03T08:23:32;102356.58;;;8.48;100.00
48404;BME280;34202;52.536;6.042;2023-02-03T08:28:32;102353.02;;;8.50;100.00
48404;BME280;34202;52.536;6.042;2023-02-03T08:33:33;102366.44;;;8.52;100.00
48404;BME280;34202;52.536;6.042;2023-02-03T08:38:33;102380.82;;;8.56;100.00
48404;BME280;34202;52.536;6.042;2023-02-03T08:43:33;102375.90;;;8.58;100.00
48404;BME280;34202;52.536;6.042;2023-02-03T08:48:34;102379.98;;;8.61;100.00
48404;BME280;34202;52.536;6.042;2023-02-03T08:53:34;102383.21;;;8.63;100.00
48404;BME280;34202;52.536;6.042;2023-02-03T08:58:35;102381.55;;;8.65;100.00
48404;BME280;34202;52.536;6.042;2023-02-03T09:03:36;102377.44;;;8.66;100.00
48404;BME280;34202;52.536;6.042;2023-02-03T09:08:38;102386.16;;;8.68;100.00
48404;BME280;34202;52.536;6.042;2023-02-03T09:13:39;102387.61;;;8.69;100.00
48404;BME280;34202;52.536;6.042;2023-02-03T09:18:39;102379.16;;;8.71;100.00
48404;BME280;34202;52.536;6.042;2023-02-03T09:23:39;102386.85;;;8.72;100.00
48404;BME280;34202;52.536;6.042;2023-02-03T09:28:40;102392.80;;;8.74;100.00
48404;BME280;34202;52.536;6.042;2023-02-03T09:33:40;102400.20;;;8.76;100.00
48404;BME280;34202;52.536;6.042;2023-02-03T09:38:40;102406.41;;;8.80;100.00
48404;BME280;34202;52.536;6.042;2023-02-03T09:44:06;102420.48;;;8.84;100.00
48404;BME280;34202;52.536;6.042;2023-02-03T09:49:23;102415.52;;;8.86;100.00
48404;BME280;34202;52.536;6.042;2023-02-03T09:54:36;102414.58;;;8.88;100.00
48404;BME280;34202;52.536;6.042;2023-02-03T09:59:38;102409.05;;;8.90;100.00
48404;BME280;34202;52.536;6.042;2023-02-03T10:04:58;102421.77;;;8.91;100.00
48404;BME280;34202;52.536;6.042;2023-02-03T10:10:15;102447.14;;;8.91;100.00
48404;BME280;34202;52.536;6.042;2023-02-03T10:20:40;102465.05;;;8.92;100.00
48404;BME280;34202;52.536;6.042;2023-02-03T10:25:45;102466.69;;;8.90;100.00
48404;BME280;34202;52.536;6.042;2023-02-03T10:30:53;102465.81;;;8.89;100.00
48404;BME280;34202;52.536;6.042;2023-02-03T10:41:02;102465.02;;;8.91;100.00
48404;BME280;34202;52.536;6.042;2023-02-03T10:46:03;102477.27;;;8.93;100.00
48404;BME280;34202;52.536;6.042;2023-02-03T10:51:03;102492.08;;;8.95;100.00
48404;BME280;34202;52.536;6.042;2023-02-03T10:56:15;102505.55;;;8.98;100.00
48404;BME280;34202;52.536;6.042;2023-02-03T11:01:43;102517.03;;;8.98;100.00
48404;BME280;34202;52.536;6.042;2023-02-03T11:06:53;102522.26;;;8.98;100.00
48404;BME280;34202;52.536;6.042;2023-02-03T11:12:16;102520.50;;;8.98;100.00
48404;BME280;34202;52.536;6.042;2023-02-03T11:17:18;102529.20;;;8.98;100.00
48404;BME280;34202;52.536;6.042;2023-02-03T11:22:31;102538.21;;;8.98;100.00
48404;BME280;34202;52.536;6.042;2023-02-03T11:27:33;102539.27;;;8.98;100.00
48404;BME280;34202;52.536;6.042;2023-02-03T11:32:38;102540.17;;;8.99;100.00
48404;BME280;34202;52.536;6.042;2023-02-03T11:37:42;102550.16;;;9.01;100.00
48404;BME280;34202;52.536;6.042;2023-02-03T11:42:58;102561.14;;;9.02;100.00
48404;BME280;34202;52.536;6.042;2023-02-03T11:48:15;102550.30;;;9.05;100.00
48404;BME280;34202;52.536;6.042;2023-02-03T11:53:25;102552.84;;;9.07;100.00
48404;BME280;34202;52.536;6.042;2023-02-03T12:09:55;102575.10;;;9.13;100.00
48404;BME280;34202;52.536;6.042;2023-02-03T12:15:23;102577.22;;;9.14;100.00
48404;BME280;34202;52.536;6.042;2023-02-03T12:31:39;102604.66;;;9.14;100.00
48404;BME280;34202;52.536;6.042;2023-02-03T12:42:04;102601.17;;;9.13;100.00
48404;BME280;34202;52.536;6.042;2023-02-03T12:47:18;102598.36;;;9.12;100.00
48404;BME280;34202;52.536;6.042;2023-02-03T12:52:29;102607.69;;;9.11;100.00
48404;BME280;34202;52.536;6.042;2023-02-03T12:57:37;102619.75;;;9.08;100.00
48404;BME280;34202;52.536;6.042;2023-02-03T13:02:47;102625.29;;;9.08;100.00
48404;BME280;34202;52.536;6.042;2023-02-03T13:08:11;102616.04;;;9.06;100.00
48404;BME280;34202;52.536;6.042;2023-02-03T13:13:15;102617.39;;;9.06;100.00
48404;BME280;34202;52.536;6.042;2023-02-03T13:18:31;102604.55;;;9.06;100.00
48404;BME280;34202;52.536;6.042;2023-02-03T13:23:33;102603.28;;;9.05;100.00
48404;BME280;34202;52.536;6.042;2023-02-03T13:34:28;102614.11;;;9.02;100.00
48404;BME280;34202;52.536;6.042;2023-02-03T13:45:18;102622.26;;;8.98;100.00
48404;BME280;34202;52.536;6.042;2023-02-03T13:50:24;102627.23;;;8.96;100.00
48404;BME280;34202;52.536;6.042;2023-02-03T13:55:36;102631.56;;;8.96;100.00
48404;BME280;34202;52.536;6.042;2023-02-03T14:05:47;102650.75;;;8.90;100.00
48404;BME280;34202;52.536;6.042;2023-02-03T14:16:33;102661.30;;;8.84;100.00
48404;BME280;34202;52.536;6.042;2023-02-03T14:21:54;102672.53;;;8.83;100.00
48404;BME280;34202;52.536;6.042;2023-02-03T14:26:57;102685.18;;;8.83;100.00
48404;BME280;34202;52.536;6.042;2023-02-03T14:32:20;102694.83;;;8.81;100.00
48404;BME280;34202;52.536;6.042;2023-02-03T14:37:21;102693.33;;;8.79;100.00
48404;BME280;34202;52.536;6.042;2023-02-03T14:53:19;102694.64;;;8.69;100.00
48404;BME280;34202;52.536;6.042;2023-02-03T14:58:35;102697.43;;;8.65;100.00
48404;BME280;34202;52.536;6.042;2023-02-03T15:03:37;102701.59;;;8.61;100.00
48404;BME280;34202;52.536;6.042;2023-02-03T15:08:46;102704.45;;;8.59;100.00
48404;BME280;34202;52.536;6.042;2023-02-03T15:13:46;102703.00;;;8.58;100.00
48404;BME280;34202;52.536;6.042;2023-02-03T15:18:58;102706.73;;;8.56;100.00
48404;BME280;34202;52.536;6.042;2023-02-03T15:23:59;102707.03;;;8.51;100.00
48404;BME280;34202;52.536;6.042;2023-02-03T15:29:01;102710.34;;;8.47;100.00
48404;BME280;34202;52.536;6.042;2023-02-03T15:34:17;102717.34;;;8.45;100.00
48404;BME280;34202;52.536;6.042;2023-02-03T15:44:44;102737.65;;;8.38;100.00
48404;BME280;34202;52.536;6.042;2023-02-03T15:49:57;102738.81;;;8.33;100.00
48404;BME280;34202;52.536;6.042;2023-02-03T15:55:06;102753.02;;;8.29;100.00
48404;BME280;34202;52.536;6.042;2023-02-03T16:00:11;102755.42;;;8.25;100.00
48404;BME280;34202;52.536;6.042;2023-02-03T16:05:30;102759.92;;;8.21;100.00
48404;BME280;34202;52.536;6.042;2023-02-03T16:10:32;102759.01;;;8.16;100.00
48404;BME280;34202;52.536;6.042;2023-02-03T16:15:33;102766.23;;;8.11;100.00
48404;BME280;34202;52.536;6.042;2023-02-03T16:20:34;102774.91;;;8.07;100.00
48404;BME280;34202;52.536;6.042;2023-02-03T16:25:36;102780.42;;;8.04;100.00
48404;BME280;34202;52.536;6.042;2023-02-03T16:30:37;102787.85;;;7.99;100.00
48404;BME280;34202;52.536;6.042;2023-02-03T16:35:59;102798.79;;;7.96;100.00
48404;BME280;34202;52.536;6.042;2023-02-03T16:41:18;102797.91;;;7.91;100.00
48404;BME280;34202;52.536;6.042;2023-02-03T16:46:37;102809.67;;;7.88;100.00
48404;BME280;34202;52.536;6.042;2023-02-03T16:51:56;102820.27;;;7.85;100.00
48404;BME280;34202;52.536;6.042;2023-02-03T16:56:57;102824.76;;;7.81;100.00
48404;BME280;34202;52.536;6.042;2023-02-03T17:01:57;102833.27;;;7.78;100.00
48404;BME280;34202;52.536;6.042;2023-02-03T17:06:57;102841.44;;;7.74;100.00
48404;BME280;34202;52.536;6.042;2023-02-03T17:11:57;102855.86;;;7.72;100.00
48404;BME280;34202;52.536;6.042;2023-02-03T17:16:58;102855.51;;;7.68;100.00
48404;BME280;34202;52.536;6.042;2023-02-03T17:21:58;102863.41;;;7.64;100.00
48404;BME280;34202;52.536;6.042;2023-02-03T17:26:58;102867.52;;;7.59;100.00
48404;BME280;34202;52.536;6.042;2023-02-03T17:31:59;102877.44;;;7.57;100.00
48404;BME280;34202;52.536;6.042;2023-02-03T17:36:59;102886.94;;;7.52;100.00
48404;BME280;34202;52.536;6.042;2023-02-03T17:41:59;102897.35;;;7.49;100.00
48404;BME280;34202;52.536;6.042;2023-02-03T17:47:00;102905.20;;;7.47;100.00
48404;BME280;34202;52.536;6.042;2023-02-03T17:52:01;102909.95;;;7.45;100.00
48404;BME280;34202;52.536;6.042;2023-02-03T17:57:01;102911.18;;;7.42;100.00
48404;BME280;34202;52.536;6.042;2023-02-03T18:02:02;102917.32;;;7.41;100.00
48404;BME280;34202;52.536;6.042;2023-02-03T18:07:02;102918.42;;;7.39;100.00
48404;BME280;34202;52.536;6.042;2023-02-03T18:12:03;102930.70;;;7.38;100.00
48404;BME280;34202;52.536;6.042;2023-02-03T18:17:03;102932.33;;;7.36;100.00
48404;BME280;34202;52.536;6.042;2023-02-03T18:22:04;102933.20;;;7.33;100.00
48404;BME280;34202;52.536;6.042;2023-02-03T18:27:04;102939.33;;;7.31;100.00
48404;BME280;34202;52.536;6.042;2023-02-03T18:32:04;102947.95;;;7.27;100.00
48404;BME280;34202;52.536;6.042;2023-02-03T18:37:05;102949.55;;;7.24;100.00
48404;BME280;34202;52.536;6.042;2023-02-03T18:42:05;102947.16;;;7.22;100.00
48404;BME280;34202;52.536;6.042;2023-02-03T18:47:06;102954.54;;;7.21;100.00
48404;BME280;34202;52.536;6.042;2023-02-03T18:52:07;102960.19;;;7.19;100.00
48404;BME280;34202;52.536;6.042;2023-02-03T18:57:07;102965.30;;;7.18;100.00
48404;BME280;34202;52.536;6.042;2023-02-03T19:02:12;102971.23;;;7.16;100.00
48404;BME280;34202;52.536;6.042;2023-02-03T19:07:12;102978.20;;;7.13;100.00
48404;BME280;34202;52.536;6.042;2023-02-03T19:12:12;102987.96;;;7.11;100.00
48404;BME280;34202;52.536;6.042;2023-02-03T19:17:13;102999.42;;;7.09;100.00
48404;BME280;34202;52.536;6.042;2023-02-03T19:22:13;103005.11;;;7.05;100.00
48404;BME280;34202;52.536;6.042;2023-02-03T19:27:14;103010.56;;;7.01;100.00
48404;BME280;34202;52.536;6.042;2023-02-03T19:32:14;103018.75;;;6.95;100.00
48404;BME280;34202;52.536;6.042;2023-02-03T19:37:15;103022.11;;;6.90;100.00
48404;BME280;34202;52.536;6.042;2023-02-03T19:42:16;103032.08;;;6.86;100.00
48404;BME280;34202;52.536;6.042;2023-02-03T19:47:17;103047.29;;;6.82;100.00
48404;BME280;34202;52.536;6.042;2023-02-03T19:52:17;103054.07;;;6.80;100.00
48404;BME280;34202;52.536;6.042;2023-02-03T19:57:17;103058.30;;;6.78;100.00
48404;BME280;34202;52.536;6.042;2023-02-03T20:02:17;103066.28;;;6.78;100.00
48404;BME280;34202;52.536;6.042;2023-02-03T20:07:19;103073.92;;;6.79;100.00
48404;BME280;34202;52.536;6.042;2023-02-03T20:12:19;103088.71;;;6.81;100.00
48404;BME280;34202;52.536;6.042;2023-02-03T20:17:19;103086.56;;;6.82;100.00
48404;BME280;34202;52.536;6.042;2023-02-03T20:22:20;103097.73;;;6.84;100.00
48404;BME280;34202;52.536;6.042;2023-02-03T20:27:20;103106.64;;;6.85;100.00
48404;BME280;34202;52.536;6.042;2023-02-03T20:32:21;103119.64;;;6.85;100.00
48404;BME280;34202;52.536;6.042;2023-02-03T20:37:23;103122.14;;;6.87;100.00
48404;BME280;34202;52.536;6.042;2023-02-03T20:42:23;103121.45;;;6.87;100.00
48404;BME280;34202;52.536;6.042;2023-02-03T20:47:24;103119.88;;;6.86;100.00
48404;BME280;34202;52.536;6.042;2023-02-03T20:52:25;103119.41;;;6.87;100.00
48404;BME280;34202;52.536;6.042;2023-02-03T20:57:25;103122.61;;;6.89;100.00
48404;BME280;34202;52.536;6.042;2023-02-03T21:02:25;103123.52;;;6.89;100.00
48404;BME280;34202;52.536;6.042;2023-02-03T21:07:46;103119.71;;;6.90;100.00
48404;BME280;34202;52.536;6.042;2023-02-03T21:12:47;103117.13;;;6.90;100.00
48404;BME280;34202;52.536;6.042;2023-02-03T21:17:47;103120.55;;;6.89;100.00
48404;BME280;34202;52.536;6.042;2023-02-03T21:22:47;103123.48;;;6.89;100.00
48404;BME280;34202;52.536;6.042;2023-02-03T21:27:49;103126.40;;;6.89;100.00
48404;BME280;34202;52.536;6.042;2023-02-03T21:32:49;103135.58;;;6.88;100.00
48404;BME280;34202;52.536;6.042;2023-02-03T21:37:55;103144.95;;;6.89;100.00
48404;BME280;34202;52.536;6.042;2023-02-03T21:43:00;103151.56;;;6.90;100.00
48404;BME280;34202;52.536;6.042;2023-02-03T21:48:27;103149.88;;;6.90;100.00
48404;BME280;34202;52.536;6.042;2023-02-03T21:53:30;103158.48;;;6.89;100.00
48404;BME280;34202;52.536;6.042;2023-02-03T21:58:34;103162.30;;;6.90;100.00
48404;BME280;34202;52.536;6.042;2023-02-03T22:03:37;103157.95;;;6.89;100.00
48404;BME280;34202;52.536;6.042;2023-02-03T22:08:47;103164.92;;;6.90;100.00
48404;BME280;34202;52.536;6.042;2023-02-03T22:13:47;103174.95;;;6.90;100.00
48404;BME280;34202;52.536;6.042;2023-02-03T22:18:48;103170.15;;;6.88;100.00
48404;BME280;34202;52.536;6.042;2023-02-03T22:23:49;103170.91;;;6.86;100.00
48404;BME280;34202;52.536;6.042;2023-02-03T22:28:49;103178.28;;;6.85;100.00
48404;BME280;34202;52.536;6.042;2023-02-03T22:33:50;103182.66;;;6.83;100.00
48404;BME280;34202;52.536;6.042;2023-02-03T22:38:50;103188.48;;;6.82;100.00
48404;BME280;34202;52.536;6.042;2023-02-03T22:43:51;103187.00;;;6.80;100.00
48404;BME280;34202;52.536;6.042;2023-02-03T22:48:51;103206.65;;;6.79;100.00
48404;BME280;34202;52.536;6.042;2023-02-03T22:53:52;103217.64;;;6.77;100.00
48404;BME280;34202;52.536;6.042;2023-02-03T22:58:52;103223.22;;;6.75;100.00
48404;BME280;34202;52.536;6.042;2023-02-03T23:03:52;103228.69;;;6.74;100.00
48404;BME280;34202;52.536;6.042;2023-02-03T23:08:53;103236.65;;;6.74;100.00
48404;BME280;34202;52.536;6.042;2023-02-03T23:13:54;103242.48;;;6.73;100.00
48404;BME280;34202;52.536;6.042;2023-02-03T23:18:55;103247.69;;;6.73;100.00
48404;BME280;34202;52.536;6.042;2023-02-03T23:23:55;103251.57;;;6.71;100.00
48404;BME280;34202;52.536;6.042;2023-02-03T23:28:55;103253.86;;;6.69;100.00
48404;BME280;34202;52.536;6.042;2023-02-03T23:33:56;103266.52;;;6.67;100.00
48404;BME280;34202;52.536;6.042;2023-02-03T23:39:14;103270.31;;;6.64;100.00
48404;BME280;34202;52.536;6.042;2023-02-03T23:44:15;103271.27;;;6.60;100.00
48404;BME280;34202;52.536;6.042;2023-02-03T23:49:15;103273.96;;;6.56;100.00
48404;BME280;34202;52.536;6.042;2023-02-03T23:54:16;103276.47;;;6.51;100.00
48404;BME280;34202;52.536;6.042;2023-02-03T23:59:16;103278.26;;;6.47;100.00
